createdAt,value
2022-09-25T00:02:09.809Z,13.24
2022-09-25T00:07:12.719Z,12.85
2022-09-25T00:12:15.632Z,12.52
2022-09-25T00:17:18.472Z,12.24
2022-09-25T00:22:24.953Z,12.01
2022-09-25T00:27:27.852Z,11.81
2022-09-25T00:32:31.042Z,12.91
2022-09-25T00:37:35.572Z,16.16
2022-09-25T00:42:38.514Z,16.31
2022-09-25T00:48:10.761Z,14.80
2022-09-25T00:53:38.464Z,13.90
2022-09-25T00:58:42.312Z,13.28
2022-09-25T01:03:46.470Z,12.82
2022-09-25T01:08:50.042Z,12.43
2022-09-25T01:13:55.660Z,12.10
2022-09-25T01:19:14.150Z,11.85
2022-09-25T01:24:25.570Z,11.64
2022-09-25T01:29:36.967Z,12.77
2022-09-25T01:34:56.758Z,16.00
2022-09-25T01:40:33.529Z,15.52
2022-09-25T01:45:59.693Z,14.10
2022-09-25T01:51:08.415Z,13.33
2022-09-25T01:56:20.523Z,12.81
2022-09-25T02:01:29.361Z,12.39
2022-09-25T02:06:33.347Z,12.04
2022-09-25T02:11:42.924Z,11.78
2022-09-25T02:16:50.271Z,11.57
2022-09-25T02:22:05.512Z,12.69
2022-09-25T02:27:08.348Z,15.97
2022-09-25T02:32:17.417Z,15.94
2022-09-25T02:37:20.364Z,14.53
2022-09-25T02:42:55.487Z,13.77
2022-09-25T02:48:32.481Z,13.19
2022-09-25T02:53:41.987Z,12.72
2022-09-25T02:58:51.107Z,12.35
2022-09-25T03:03:57.569Z,12.07
2022-09-25T03:09:02.667Z,11.85
2022-09-25T03:14:06.105Z,12.90
2022-09-25T03:19:09.084Z,16.15
2022-09-25T03:24:12.185Z,16.31
2022-09-25T03:29:17.456Z,14.83
2022-09-25T03:34:21.601Z,14.01
2022-09-25T03:39:24.493Z,13.46
2022-09-25T03:44:27.335Z,13.02
2022-09-25T03:49:30.130Z,12.67
2022-09-25T03:54:32.935Z,12.37
2022-09-25T03:59:35.877Z,12.13
2022-09-25T04:04:39.008Z,13.28
2022-09-25T04:09:41.888Z,16.56
2022-09-25T04:14:46.071Z,16.91
2022-09-25T04:19:49.382Z,15.35
2022-09-25T04:24:52.530Z,14.44
2022-09-25T04:29:55.547Z,13.83
2022-09-25T04:34:58.641Z,13.32
2022-09-25T04:40:01.887Z,12.91
2022-09-25T04:45:05.028Z,12.57
2022-09-25T04:50:08.386Z,12.28
2022-09-25T04:55:11.404Z,13.43
2022-09-25T05:00:18.775Z,16.93
2022-09-25T05:05:21.844Z,16.54
2022-09-25T05:10:27.850Z,15.19
2022-09-25T05:15:33.230Z,14.41
2022-09-25T05:20:36.350Z,13.85
2022-09-25T05:25:39.257Z,13.41
2022-09-25T05:30:43.774Z,13.06
2022-09-25T05:35:46.976Z,12.77
2022-09-25T05:40:50.295Z,13.77
2022-09-25T05:45:54.994Z,16.98
2022-09-25T05:50:58.689Z,17.23
2022-09-25T05:56:03.774Z,15.78
2022-09-25T06:01:07.177Z,14.99
2022-09-25T06:06:10.441Z,14.47
2022-09-25T06:11:13.338Z,14.06
2022-09-25T06:16:19.662Z,13.73
2022-09-25T06:21:22.707Z,13.50
2022-09-25T06:26:26.158Z,14.56
2022-09-25T06:31:29.113Z,17.66
2022-09-25T06:36:33.278Z,17.95
2022-09-25T06:41:36.824Z,16.62
2022-09-25T06:46:39.775Z,15.91
2022-09-25T06:51:42.787Z,15.46
2022-09-25T06:56:49.969Z,15.11
2022-09-25T07:01:53.068Z,14.82
2022-09-25T07:06:58.613Z,15.90
2022-09-25T07:12:01.829Z,18.74
2022-09-25T07:17:04.753Z,17.96
2022-09-25T07:22:07.649Z,16.96
2022-09-25T07:27:10.510Z,16.42
2022-09-25T07:32:13.322Z,16.03
2022-09-25T07:37:17.029Z,15.72
2022-09-25T07:42:19.914Z,15.46
2022-09-25T07:47:22.791Z,15.29
2022-09-25T07:52:25.727Z,15.18
2022-09-25T07:57:28.628Z,15.09
2022-09-25T08:02:32.002Z,16.26
2022-09-25T08:07:34.934Z,19.20
2022-09-25T08:12:37.809Z,18.84
2022-09-25T08:17:41.411Z,17.78
2022-09-25T08:22:44.233Z,17.22
2022-09-25T08:27:47.187Z,16.86
2022-09-25T08:32:50.536Z,16.56
2022-09-25T08:37:53.890Z,16.31
2022-09-25T08:42:57.597Z,16.12
2022-09-25T08:48:19.761Z,15.95
2022-09-25T08:53:26.378Z,15.81
2022-09-25T08:58:32.200Z,16.81
2022-09-25T09:03:46.272Z,19.74
2022-09-25T09:09:14.397Z,19.36
2022-09-25T09:14:20.680Z,18.21
2022-09-25T09:19:23.678Z,17.64
2022-09-25T09:24:53.866Z,17.28
2022-09-25T09:30:23.982Z,16.96
2022-09-25T09:35:52.441Z,16.62
2022-09-25T09:41:31.087Z,16.33
2022-09-25T09:46:57.461Z,17.59
2022-09-25T09:52:11.369Z,20.27
2022-09-25T09:57:26.664Z,19.34
2022-09-25T10:02:51.294Z,18.19
2022-09-25T10:07:54.496Z,17.52
2022-09-25T10:13:04.069Z,17.05
2022-09-25T10:18:09.462Z,16.66
2022-09-25T10:23:33.751Z,16.34
2022-09-25T10:28:36.925Z,17.38
2022-09-25T10:33:39.859Z,20.11
2022-09-25T10:38:53.446Z,19.63
2022-09-25T10:44:02.545Z,18.44
2022-09-25T10:49:33.513Z,17.82
2022-09-25T10:54:43.654Z,17.36
2022-09-25T10:59:52.228Z,16.97
2022-09-25T11:04:57.171Z,16.68
2022-09-25T11:10:00.617Z,16.45
2022-09-25T11:15:08.977Z,16.28
2022-09-25T11:20:30.233Z,17.38
2022-09-25T11:25:48.749Z,20.37
2022-09-25T11:31:22.626Z,20.05
2022-09-25T11:36:31.912Z,18.85
2022-09-25T11:41:43.948Z,18.26
2022-09-25T11:47:11.859Z,17.83
2022-09-25T11:52:37.360Z,17.47
2022-09-25T11:57:56.610Z,17.18
2022-09-25T12:03:20.531Z,16.95
2022-09-25T12:08:26.937Z,18.09
2022-09-25T12:13:41.598Z,20.93
2022-09-25T12:19:03.205Z,20.69
2022-09-25T12:24:17.876Z,19.46
2022-09-25T12:29:26.191Z,18.83
2022-09-25T12:34:34.602Z,18.41
2022-09-25T12:39:44.849Z,18.07
2022-09-25T12:45:02.037Z,17.79
2022-09-25T12:50:17.008Z,17.58
2022-09-25T12:55:26.795Z,17.40
2022-09-25T13:00:33.026Z,17.28
2022-09-25T13:05:50.359Z,17.17
2022-09-25T13:11:02.456Z,18.33
2022-09-25T13:16:05.806Z,21.07
2022-09-25T13:21:26.152Z,20.48
2022-09-25T13:26:30.362Z,19.43
2022-09-25T13:31:37.169Z,18.89
2022-09-25T13:36:53.587Z,18.51
2022-09-25T13:41:57.008Z,18.17
2022-09-25T13:47:22.089Z,17.92
2022-09-25T13:52:36.868Z,17.67
2022-09-25T13:57:58.441Z,17.47
2022-09-25T14:03:03.282Z,17.27
2022-09-25T14:08:15.973Z,17.11
2022-09-25T14:13:25.404Z,18.23
2022-09-25T14:18:44.023Z,21.05
2022-09-25T14:23:52.306Z,20.40
2022-09-25T14:28:57.297Z,19.31
2022-09-25T14:34:41.338Z,18.72
2022-09-25T14:40:02.338Z,18.23
2022-09-25T14:45:34.936Z,17.85
2022-09-25T14:50:45.805Z,17.51
2022-09-25T14:55:53.094Z,17.24
2022-09-25T15:01:02.087Z,18.23
2022-09-25T15:06:05.136Z,21.03
2022-09-25T15:11:16.385Z,20.76
2022-09-25T15:16:44.034Z,19.49
2022-09-25T15:21:47.695Z,18.77
2022-09-25T15:27:03.078Z,18.28
2022-09-25T15:32:06.621Z,17.85
2022-09-25T15:37:29.479Z,17.50
2022-09-25T15:42:33.124Z,17.18
2022-09-25T15:47:35.907Z,18.02
2022-09-25T15:52:39.305Z,20.66
2022-09-25T15:57:42.443Z,20.85
2022-09-25T16:03:17.333Z,19.51
2022-09-25T16:08:36.921Z,18.70
2022-09-25T16:13:43.750Z,18.16
2022-09-25T16:18:47.075Z,17.74
2022-09-25T16:24:07.557Z,17.38
2022-09-25T16:29:11.521Z,18.21
2022-09-25T16:34:39.108Z,20.71
2022-09-25T16:39:43.680Z,20.49
2022-09-25T16:44:47.236Z,19.19
2022-09-25T16:49:50.549Z,18.47
2022-09-25T16:54:57.023Z,17.95
2022-09-25T17:00:00.018Z,17.52
2022-09-25T17:05:11.151Z,17.16
2022-09-25T17:10:16.508Z,17.94
2022-09-25T17:15:27.628Z,20.44
2022-09-25T17:20:31.316Z,20.63
2022-09-25T17:25:45.857Z,19.25
2022-09-25T17:30:48.822Z,18.44
2022-09-25T17:36:04.196Z,17.88
2022-09-25T17:41:34.125Z,17.41
2022-09-25T17:46:37.380Z,18.17
2022-09-25T17:51:40.922Z,20.54
2022-09-25T17:56:45.473Z,20.41
2022-09-25T18:01:48.459Z,19.14
2022-09-25T18:06:52.192Z,18.39
2022-09-25T18:11:55.187Z,17.84
2022-09-25T18:16:58.307Z,17.39
2022-09-25T18:22:21.897Z,17.98
2022-09-25T18:27:27.805Z,20.52
2022-09-25T18:32:31.785Z,20.77
2022-09-25T18:37:35.131Z,19.31
2022-09-25T18:42:38.440Z,18.44
2022-09-25T18:47:42.540Z,17.84
2022-09-25T18:52:45.668Z,17.37
2022-09-25T18:57:48.667Z,17.96
2022-09-25T19:02:51.657Z,20.37
2022-09-25T19:07:54.963Z,20.57
2022-09-25T19:12:57.929Z,19.17
2022-09-25T19:18:00.792Z,18.45
2022-09-25T19:23:03.760Z,17.87
2022-09-25T19:28:07.951Z,17.36
2022-09-25T19:33:10.858Z,18.02
2022-09-25T19:38:13.769Z,20.53
2022-09-25T19:43:16.829Z,20.15
2022-09-25T19:48:20.981Z,18.82
2022-09-25T19:53:23.852Z,18.05
2022-09-25T19:58:26.723Z,17.49
2022-09-25T20:03:29.934Z,17.02
2022-09-25T20:08:33.413Z,17.74
2022-09-25T20:13:36.336Z,20.11
2022-09-25T20:18:39.480Z,20.52
2022-09-25T20:23:42.572Z,19.05
2022-09-25T20:28:46.549Z,18.16
2022-09-25T20:33:49.561Z,17.55
2022-09-25T20:38:54.134Z,17.10
2022-09-25T20:43:58.069Z,17.78
2022-09-25T20:49:02.376Z,20.25
2022-09-25T20:54:07.550Z,20.12
2022-09-25T20:59:11.387Z,18.70
2022-09-25T21:04:18.271Z,17.86
2022-09-25T21:09:24.122Z,17.25
2022-09-25T21:14:28.571Z,16.75
2022-09-25T21:19:31.947Z,17.38
2022-09-25T21:24:35.946Z,19.74
2022-09-25T21:29:39.251Z,20.10
2022-09-25T21:34:42.185Z,18.61
2022-09-25T21:39:45.025Z,17.69
2022-09-25T21:44:48.110Z,17.04
2022-09-25T21:49:51.112Z,16.51
2022-09-25T21:54:54.721Z,17.01
2022-09-25T21:59:57.564Z,19.31
2022-09-25T22:05:02.178Z,18.98
2022-09-25T22:10:07.138Z,17.68
2022-09-25T22:15:10.437Z,16.89
2022-09-25T22:20:13.729Z,16.27
2022-09-25T22:25:16.700Z,15.79
2022-09-25T22:30:19.786Z,16.47
2022-09-25T22:35:22.725Z,19.00
2022-09-25T22:40:25.653Z,19.48
2022-09-25T22:45:29.377Z,18.01
2022-09-25T22:50:32.245Z,17.07
2022-09-25T22:55:35.094Z,16.46
2022-09-25T23:00:42.983Z,15.97
2022-09-25T23:05:47.553Z,16.69
2022-09-25T23:11:06.638Z,19.11
2022-09-25T23:16:12.948Z,19.28
2022-09-25T23:21:16.856Z,17.79
2022-09-25T23:26:20.392Z,16.90
2022-09-25T23:31:27.147Z,16.26
2022-09-25T23:36:32.705Z,15.70
2022-09-25T23:41:39.838Z,15.23
2022-09-25T23:46:46.231Z,15.88
2022-09-25T23:51:51.826Z,18.41
2022-09-25T23:56:57.765Z,18.55
